createdAt,value
2017-10-23T00:01:05.164Z,7.89
2017-10-23T00:03:32.731Z,7.91
2017-10-23T00:06:00.265Z,7.93
2017-10-23T00:08:27.803Z,7.90
2017-10-23T00:10:55.372Z,7.87
2017-10-23T00:13:22.945Z,7.87
2017-10-23T00:15:50.527Z,7.91
2017-10-23T00:18:18.069Z,7.92
2017-10-23T00:20:45.604Z,7.84
2017-10-23T00:23:13.142Z,7.88
2017-10-23T00:25:40.709Z,7.90
2017-10-23T00:28:08.325Z,7.84
2017-10-23T00:30:35.856Z,7.91
2017-10-23T00:33:03.426Z,7.94
2017-10-23T00:35:30.993Z,7.92
2017-10-23T00:37:58.541Z,7.94
2017-10-23T00:40:26.084Z,7.94
2017-10-23T00:42:53.641Z,7.92
2017-10-23T00:45:21.185Z,7.94
2017-10-23T00:47:48.754Z,7.97
2017-10-23T00:50:16.283Z,7.99
2017-10-23T00:52:43.854Z,7.98
2017-10-23T00:55:11.450Z,7.99
2017-10-23T00:57:38.999Z,7.97
2017-10-23T01:00:06.688Z,7.90
2017-10-23T01:02:34.252Z,7.99
2017-10-23T01:05:01.804Z,8.01
2017-10-23T01:07:29.354Z,7.97
2017-10-23T01:09:56.957Z,8.01
2017-10-23T01:12:24.538Z,7.99
2017-10-23T01:14:52.074Z,8.00
2017-10-23T01:17:19.631Z,7.95
2017-10-23T01:19:47.196Z,7.93
2017-10-23T01:22:14.743Z,7.90
2017-10-23T01:24:42.285Z,7.91
2017-10-23T01:27:09.861Z,7.86
2017-10-23T01:29:37.425Z,7.89
2017-10-23T01:32:04.962Z,7.92
2017-10-23T01:34:32.518Z,7.93
2017-10-23T01:37:00.085Z,7.86
2017-10-23T01:39:27.639Z,7.83
2017-10-23T01:41:55.193Z,7.84
2017-10-23T01:44:22.729Z,7.83
2017-10-23T01:46:50.291Z,7.82
2017-10-23T01:49:17.839Z,7.80
2017-10-23T01:51:45.361Z,7.80
2017-10-23T01:54:12.924Z,7.73
2017-10-23T01:56:40.487Z,7.76
2017-10-23T01:59:08.022Z,7.73
2017-10-23T02:01:35.976Z,7.66
2017-10-23T02:04:04.025Z,7.71
2017-10-23T02:06:31.955Z,7.74
2017-10-23T02:08:59.504Z,7.73
2017-10-23T02:11:27.151Z,7.70
2017-10-23T02:13:54.712Z,7.73
2017-10-23T02:16:23.108Z,7.69
2017-10-23T02:18:50.648Z,7.67
2017-10-23T02:21:18.194Z,7.65
2017-10-23T02:23:45.723Z,7.66
2017-10-23T02:26:13.249Z,7.70
2017-10-23T02:28:40.808Z,7.74
2017-10-23T02:31:08.477Z,7.71
2017-10-23T02:33:36.029Z,7.67
2017-10-23T02:36:03.884Z,7.67
2017-10-23T02:38:31.502Z,7.66
2017-10-23T02:40:59.040Z,7.67
2017-10-23T02:43:26.710Z,7.70
2017-10-23T02:45:54.275Z,7.65
2017-10-23T02:48:21.871Z,7.63
2017-10-23T02:50:49.433Z,7.60
2017-10-23T02:53:17.552Z,7.60
2017-10-23T02:55:45.092Z,7.59
2017-10-23T02:58:12.656Z,7.57
2017-10-23T03:00:40.224Z,7.59
2017-10-23T03:03:07.764Z,7.59
2017-10-23T03:05:35.303Z,7.57
2017-10-23T03:08:02.875Z,7.47
2017-10-23T03:10:30.447Z,7.33
2017-10-23T03:12:58.077Z,7.20
2017-10-23T03:15:25.747Z,7.12
2017-10-23T03:17:53.299Z,7.04
2017-10-23T03:20:20.838Z,6.98
2017-10-23T03:22:48.407Z,6.94
2017-10-23T03:25:15.941Z,6.90
2017-10-23T03:27:43.530Z,6.84
2017-10-23T03:30:11.250Z,6.77
2017-10-23T03:32:38.791Z,6.77
2017-10-23T03:35:06.360Z,6.74
2017-10-23T03:37:33.968Z,6.76
2017-10-23T03:40:01.529Z,6.79
2017-10-23T03:42:29.115Z,6.79
2017-10-23T03:44:56.665Z,6.78
2017-10-23T03:47:24.207Z,6.81
2017-10-23T03:49:51.760Z,6.77
2017-10-23T03:52:19.452Z,6.77
2017-10-23T03:54:47.065Z,6.77
2017-10-23T03:57:14.637Z,6.76
2017-10-23T03:59:42.187Z,6.78
2017-10-23T04:02:09.744Z,6.82
2017-10-23T04:04:37.311Z,6.80
2017-10-23T04:07:04.931Z,6.82
2017-10-23T04:09:32.513Z,6.80
2017-10-23T04:12:00.088Z,6.80
2017-10-23T04:14:27.891Z,6.76
2017-10-23T04:16:55.496Z,6.80
2017-10-23T04:19:23.071Z,6.77
2017-10-23T04:21:50.636Z,6.72
2017-10-23T04:24:18.253Z,6.73
2017-10-23T04:26:45.845Z,6.72
2017-10-23T04:29:13.404Z,6.74
2017-10-23T04:31:40.995Z,6.76
2017-10-23T04:34:08.550Z,6.75
2017-10-23T04:36:36.115Z,6.71
2017-10-23T04:39:03.747Z,6.75
2017-10-23T04:41:31.423Z,6.76
2017-10-23T04:43:58.969Z,6.76
2017-10-23T04:46:26.530Z,6.76
2017-10-23T04:48:54.109Z,6.76
2017-10-23T04:51:21.666Z,6.77
2017-10-23T04:53:49.206Z,6.79
2017-10-23T04:56:16.752Z,6.79
2017-10-23T04:58:44.293Z,6.71
2017-10-23T05:01:11.832Z,6.65
2017-10-23T05:03:39.393Z,6.64
2017-10-23T05:06:06.929Z,6.66
2017-10-23T05:08:34.501Z,6.72
2017-10-23T05:11:02.068Z,6.69
2017-10-23T05:13:29.686Z,6.69
2017-10-23T05:15:57.234Z,6.68
2017-10-23T05:18:24.772Z,6.63
2017-10-23T05:20:52.384Z,6.63
2017-10-23T05:23:19.950Z,6.60
2017-10-23T05:25:47.496Z,6.61
2017-10-23T05:28:15.229Z,6.60
2017-10-23T05:30:42.785Z,6.58
2017-10-23T05:33:10.438Z,6.59
2017-10-23T05:35:38.634Z,6.55
2017-10-23T05:38:06.213Z,6.58
2017-10-23T05:40:33.778Z,6.56
2017-10-23T05:43:01.469Z,6.58
2017-10-23T05:45:29.541Z,6.60
2017-10-23T05:47:57.117Z,6.61
2017-10-23T05:50:24.677Z,6.64
2017-10-23T05:52:52.227Z,6.65
2017-10-23T05:55:19.750Z,6.60
2017-10-23T06:00:20.946Z,6.58
2017-10-23T06:02:48.544Z,6.63
2017-10-23T06:05:16.109Z,6.65
2017-10-23T06:07:44.244Z,6.64
2017-10-23T06:10:11.845Z,6.65
2017-10-23T06:12:40.045Z,6.65
2017-10-23T06:15:07.707Z,6.71
2017-10-23T06:17:35.299Z,6.71
2017-10-23T06:20:02.878Z,6.73
2017-10-23T06:22:30.444Z,6.73
2017-10-23T06:24:58.011Z,6.71
2017-10-23T06:27:25.568Z,6.68
2017-10-23T06:29:53.110Z,6.70
2017-10-23T06:32:20.670Z,6.73
2017-10-23T06:34:48.249Z,6.81
2017-10-23T06:37:15.777Z,6.81
2017-10-23T06:39:43.469Z,6.77
2017-10-23T06:42:11.014Z,6.74
2017-10-23T06:44:38.978Z,6.77
2017-10-23T06:47:07.454Z,6.80
2017-10-23T06:49:35.009Z,6.80
2017-10-23T06:52:02.535Z,6.82
2017-10-23T06:54:30.117Z,6.77
2017-10-23T06:56:57.657Z,6.87
2017-10-23T06:59:25.208Z,6.93
2017-10-23T07:01:52.786Z,6.92
2017-10-23T07:04:20.336Z,6.97
2017-10-23T07:06:47.870Z,6.96
2017-10-23T07:09:15.460Z,6.93
2017-10-23T07:11:42.988Z,6.94
2017-10-23T07:14:10.625Z,6.93
2017-10-23T07:16:38.172Z,6.91
2017-10-23T07:19:05.871Z,6.93
2017-10-23T07:21:33.396Z,6.96
2017-10-23T07:24:00.939Z,6.94
2017-10-23T07:26:28.474Z,6.98
2017-10-23T07:28:56.023Z,6.93
2017-10-23T07:31:23.921Z,6.93
2017-10-23T07:33:51.450Z,6.98
2017-10-23T07:36:19.144Z,6.97
2017-10-23T07:38:46.660Z,6.93
2017-10-23T07:41:14.230Z,6.92
2017-10-23T07:43:41.763Z,6.96
2017-10-23T07:46:09.349Z,6.98
2017-10-23T07:48:36.884Z,6.99
2017-10-23T07:51:04.433Z,7.00
2017-10-23T07:53:31.955Z,7.13
2017-10-23T07:55:59.483Z,7.09
2017-10-23T07:58:27.178Z,7.13
2017-10-23T08:00:54.714Z,7.10
2017-10-23T08:03:22.313Z,7.09
2017-10-23T08:05:49.837Z,7.08
2017-10-23T08:08:17.359Z,7.21
2017-10-23T08:10:44.879Z,7.32
2017-10-23T08:13:12.431Z,7.26
2017-10-23T08:15:40.509Z,7.28
2017-10-23T08:18:08.040Z,7.24
2017-10-23T08:20:35.602Z,7.38
2017-10-23T08:23:03.136Z,7.33
2017-10-23T08:25:30.649Z,7.38
2017-10-23T08:27:58.174Z,7.37
2017-10-23T08:30:25.754Z,7.39
2017-10-23T08:32:53.273Z,7.53
2017-10-23T08:35:20.788Z,7.45
2017-10-23T08:37:48.338Z,7.58
2017-10-23T08:40:15.847Z,7.68
2017-10-23T08:42:43.359Z,7.74
2017-10-23T08:45:10.900Z,7.67
2017-10-23T08:47:38.415Z,7.73
2017-10-23T08:50:05.936Z,7.74
2017-10-23T08:52:33.464Z,7.80
2017-10-23T08:55:01.010Z,7.80
2017-10-23T08:57:28.946Z,7.85
2017-10-23T08:59:56.465Z,7.86
2017-10-23T09:02:24.009Z,7.95
2017-10-23T09:04:51.530Z,8.00
2017-10-23T09:07:19.205Z,8.21
2017-10-23T09:09:46.755Z,8.21
2017-10-23T09:12:14.272Z,8.16
2017-10-23T09:14:41.809Z,8.07
2017-10-23T09:17:09.644Z,8.05
2017-10-23T09:19:37.182Z,8.07
2017-10-23T09:22:04.708Z,8.09
2017-10-23T09:24:32.247Z,8.21
2017-10-23T09:26:59.784Z,8.20
2017-10-23T09:29:27.326Z,8.19
2017-10-23T09:31:54.870Z,8.17
2017-10-23T09:34:22.412Z,8.23
2017-10-23T09:36:49.955Z,8.35
2017-10-23T09:39:17.639Z,8.33
2017-10-23T09:41:45.153Z,8.38
2017-10-23T09:44:12.666Z,8.46
2017-10-23T09:46:40.222Z,8.62
2017-10-23T09:49:07.870Z,8.63
2017-10-23T09:51:35.394Z,8.75
2017-10-23T09:54:03.089Z,8.76
2017-10-23T09:56:31.030Z,8.94
2017-10-23T09:58:58.597Z,8.89
2017-10-23T10:01:26.248Z,8.92
2017-10-23T10:03:53.810Z,9.03
2017-10-23T10:06:21.451Z,9.08
2017-10-23T10:08:49.016Z,9.08
2017-10-23T10:11:17.225Z,8.97
2017-10-23T10:13:45.104Z,9.12
2017-10-23T10:16:13.195Z,9.26
2017-10-23T10:18:41.236Z,9.13
2017-10-23T10:21:08.869Z,9.03
2017-10-23T10:23:36.584Z,9.04
2017-10-23T10:26:04.190Z,9.22
2017-10-23T10:28:31.783Z,9.27
2017-10-23T10:30:59.332Z,9.31
2017-10-23T10:33:26.876Z,9.35
2017-10-23T10:35:54.433Z,9.43
2017-10-23T10:38:21.980Z,9.40
2017-10-23T10:40:50.154Z,9.43
2017-10-23T10:43:17.702Z,9.48
2017-10-23T10:45:45.943Z,9.57
2017-10-23T10:48:13.523Z,9.46
2017-10-23T10:50:41.084Z,9.21
2017-10-23T10:53:08.634Z,9.22
2017-10-23T10:55:36.168Z,9.17
2017-10-23T10:58:03.755Z,9.19
2017-10-23T11:00:31.840Z,9.23
2017-10-23T11:02:59.394Z,9.32
2017-10-23T11:05:28.016Z,9.44
2017-10-23T11:07:55.548Z,9.63
2017-10-23T11:10:23.089Z,9.74
2017-10-23T11:12:50.668Z,9.64
2017-10-23T11:15:18.309Z,9.52
2017-10-23T11:17:45.867Z,9.40
2017-10-23T11:20:13.466Z,9.30
2017-10-23T11:22:41.015Z,9.42
2017-10-23T11:25:08.753Z,9.56
2017-10-23T11:27:36.393Z,9.74
2017-10-23T11:30:03.934Z,9.90
2017-10-23T11:32:31.493Z,9.77
2017-10-23T11:34:59.021Z,9.87
2017-10-23T11:37:26.580Z,9.87
2017-10-23T11:39:54.141Z,9.71
2017-10-23T11:42:21.669Z,9.79
2017-10-23T11:44:49.197Z,9.99
2017-10-23T11:47:16.822Z,10.20
2017-10-23T11:49:44.374Z,10.35
2017-10-23T11:52:11.914Z,10.36
2017-10-23T11:54:39.489Z,10.19
2017-10-23T11:57:07.033Z,9.97
2017-10-23T11:59:34.584Z,9.94
2017-10-23T12:02:02.145Z,10.04
2017-10-23T12:04:29.685Z,10.08
2017-10-23T12:06:57.262Z,9.98
2017-10-23T12:09:24.866Z,9.65
2017-10-23T12:14:26.349Z,9.62
2017-10-23T12:16:53.901Z,9.73
2017-10-23T12:19:21.472Z,9.63
2017-10-23T12:21:49.040Z,9.51
2017-10-23T12:24:16.587Z,9.51
2017-10-23T12:26:44.118Z,9.61
2017-10-23T12:29:11.686Z,9.53
2017-10-23T12:31:39.221Z,9.54
2017-10-23T12:34:06.766Z,9.55
2017-10-23T12:36:34.322Z,9.66
2017-10-23T12:39:01.864Z,9.77
2017-10-23T12:41:29.404Z,9.96
2017-10-23T12:43:56.945Z,10.07
2017-10-23T12:46:24.538Z,10.03
2017-10-23T12:48:52.073Z,9.97
2017-10-23T12:51:19.625Z,9.78
2017-10-23T12:53:47.153Z,9.79
2017-10-23T12:56:14.701Z,9.88
2017-10-23T12:58:42.246Z,9.98
2017-10-23T13:01:09.785Z,9.92
2017-10-23T13:03:37.391Z,9.96
2017-10-23T13:06:04.917Z,10.05
2017-10-23T13:08:32.442Z,10.12
2017-10-23T13:11:00.025Z,10.04
2017-10-23T13:13:27.642Z,9.96
2017-10-23T13:15:55.204Z,9.82
2017-10-23T13:18:23.264Z,9.71
2017-10-23T13:20:50.785Z,9.78
2017-10-23T13:23:18.336Z,9.89
2017-10-23T13:25:45.901Z,9.89
2017-10-23T13:28:13.467Z,9.85
2017-10-23T13:30:40.995Z,9.82
2017-10-23T13:33:08.722Z,9.58
2017-10-23T13:35:36.298Z,9.73
2017-10-23T13:38:03.835Z,9.63
2017-10-23T13:40:31.396Z,9.74
2017-10-23T13:42:58.925Z,9.68
2017-10-23T13:45:26.707Z,9.65
2017-10-23T13:47:54.329Z,9.67
2017-10-23T13:50:21.881Z,9.41
2017-10-23T13:52:49.437Z,9.18
2017-10-23T13:55:16.992Z,9.26
2017-10-23T13:57:44.532Z,9.26
2017-10-23T14:00:12.062Z,9.30
2017-10-23T14:02:39.622Z,9.28
2017-10-23T14:05:07.164Z,9.23
2017-10-23T14:07:34.739Z,9.19
2017-10-23T14:10:02.367Z,9.12
2017-10-23T14:12:29.915Z,9.12
2017-10-23T14:14:57.478Z,9.11
2017-10-23T14:17:25.092Z,9.07
2017-10-23T14:19:52.790Z,9.15
2017-10-23T14:22:20.361Z,9.10
2017-10-23T14:24:47.930Z,9.01
2017-10-23T14:27:15.558Z,8.97
2017-10-23T14:29:43.301Z,8.87
2017-10-23T14:32:10.958Z,8.90
2017-10-23T14:34:38.528Z,8.95
2017-10-23T14:37:06.149Z,8.98
2017-10-23T14:39:33.732Z,9.01
2017-10-23T14:42:01.324Z,9.06
2017-10-23T14:44:28.960Z,9.01
2017-10-23T14:46:56.609Z,9.12
2017-10-23T14:49:24.263Z,9.03
2017-10-23T14:51:51.903Z,9.02
2017-10-23T14:54:19.567Z,9.04
2017-10-23T14:56:47.681Z,9.03
2017-10-23T14:59:15.323Z,9.03
2017-10-23T15:01:43.240Z,8.74
2017-10-23T15:04:10.808Z,8.54
2017-10-23T15:06:38.526Z,8.35
2017-10-23T15:09:06.316Z,8.23
2017-10-23T15:11:33.865Z,8.23
2017-10-23T15:14:01.449Z,8.21
2017-10-23T15:16:29.026Z,8.13
2017-10-23T15:18:56.586Z,8.11
2017-10-23T15:21:24.238Z,8.08
2017-10-23T15:23:51.787Z,8.04
2017-10-23T15:26:19.572Z,7.97
2017-10-23T15:28:47.529Z,7.95
2017-10-23T15:31:15.063Z,7.91
2017-10-23T15:33:42.609Z,7.94
2017-10-23T15:36:10.287Z,8.01
2017-10-23T15:38:37.816Z,8.02
2017-10-23T15:41:05.458Z,8.04
2017-10-23T15:43:33.074Z,8.03
2017-10-23T15:48:34.463Z,8.08
2017-10-23T15:51:02.025Z,8.14
2017-10-23T15:53:30.632Z,8.16
2017-10-23T15:55:58.231Z,8.18
2017-10-23T15:58:25.787Z,8.17
2017-10-23T16:00:53.338Z,8.22
2017-10-23T16:03:20.943Z,8.26
2017-10-23T16:05:48.438Z,8.23
2017-10-23T16:08:16.011Z,8.27
2017-10-23T16:10:43.583Z,8.29
2017-10-23T16:13:11.445Z,8.25
2017-10-23T16:15:40.387Z,8.30
2017-10-23T16:18:07.973Z,8.31
2017-10-23T16:20:35.512Z,8.29
2017-10-23T16:23:03.073Z,8.25
2017-10-23T16:25:30.706Z,8.20
2017-10-23T16:27:58.257Z,8.13
2017-10-23T16:30:25.864Z,8.14
2017-10-23T16:32:53.555Z,8.18
2017-10-23T16:35:21.125Z,8.22
2017-10-23T16:37:48.720Z,8.20
2017-10-23T16:40:16.323Z,8.15
2017-10-23T16:42:43.908Z,8.10
2017-10-23T16:45:11.837Z,8.10
2017-10-23T16:47:39.364Z,8.13
2017-10-23T16:50:06.974Z,8.12
2017-10-23T16:52:34.517Z,8.13
2017-10-23T16:55:02.076Z,8.07
2017-10-23T16:57:29.696Z,8.10
2017-10-23T16:59:57.249Z,8.04
2017-10-23T17:02:24.799Z,8.03
2017-10-23T17:04:52.397Z,7.97
2017-10-23T17:07:19.984Z,7.87
2017-10-23T17:09:47.528Z,7.78
2017-10-23T17:12:15.156Z,7.73
2017-10-23T17:14:42.757Z,7.66
2017-10-23T17:17:11.384Z,7.59
2017-10-23T17:19:39.029Z,7.49
2017-10-23T17:22:06.674Z,7.51
2017-10-23T17:24:34.249Z,7.53
2017-10-23T17:27:01.843Z,7.57
2017-10-23T17:29:29.398Z,7.59
2017-10-23T17:31:56.968Z,7.59
2017-10-23T17:34:24.548Z,7.68
2017-10-23T17:36:52.152Z,7.75
2017-10-23T17:39:19.807Z,7.80
2017-10-23T17:41:47.469Z,7.83
2017-10-23T17:44:15.040Z,7.78
2017-10-23T17:46:42.610Z,7.75
2017-10-23T17:49:10.686Z,7.82
2017-10-23T17:51:38.279Z,7.89
2017-10-23T17:54:06.141Z,7.90
2017-10-23T17:56:33.818Z,8.01
2017-10-23T17:59:01.373Z,8.11
2017-10-23T18:01:29.687Z,8.12
2017-10-23T18:03:57.422Z,8.12
2017-10-23T18:06:24.978Z,8.12
2017-10-23T18:08:52.745Z,8.19
2017-10-23T18:11:20.474Z,8.19
2017-10-23T18:13:48.076Z,8.17
2017-10-23T18:16:15.683Z,8.11
2017-10-23T18:18:43.251Z,8.04
2017-10-23T18:21:11.300Z,7.99
2017-10-23T18:23:44.473Z,8.01
2017-10-23T18:26:12.498Z,7.97
2017-10-23T18:28:40.061Z,7.95
2017-10-23T18:31:07.673Z,7.95
2017-10-23T18:33:35.292Z,8.04
2017-10-23T18:36:03.211Z,8.10
2017-10-23T18:38:30.763Z,8.13
2017-10-23T18:40:59.301Z,8.23
2017-10-23T18:43:26.943Z,8.24
2017-10-23T18:45:54.564Z,8.21
2017-10-23T18:48:22.201Z,8.25
2017-10-23T18:50:49.769Z,8.16
2017-10-23T18:53:17.330Z,8.10
2017-10-23T18:55:44.916Z,8.05
2017-10-23T18:58:12.477Z,7.85
2017-10-23T19:00:40.019Z,7.75
2017-10-23T19:03:07.648Z,7.74
2017-10-23T19:05:35.317Z,7.66
2017-10-23T19:08:02.875Z,7.63
2017-10-23T19:10:30.462Z,7.67
2017-10-23T19:12:58.031Z,7.73
2017-10-23T19:15:25.586Z,7.70
2017-10-23T19:17:53.181Z,7.61
2017-10-23T19:20:20.823Z,7.52
2017-10-23T19:22:48.630Z,7.51
2017-10-23T19:25:16.214Z,7.42
2017-10-23T19:27:43.805Z,7.40
2017-10-23T19:30:11.387Z,7.43
2017-10-23T19:32:38.974Z,7.46
2017-10-23T19:35:06.606Z,7.37
2017-10-23T19:37:34.167Z,7.38
2017-10-23T19:40:01.746Z,7.39
2017-10-23T19:42:29.288Z,7.43
2017-10-23T19:44:56.849Z,7.42
2017-10-23T19:47:24.483Z,7.42
2017-10-23T19:49:52.085Z,7.42
2017-10-23T19:52:19.661Z,7.37
2017-10-23T19:54:47.445Z,7.30
2017-10-23T19:57:14.995Z,7.30
2017-10-23T19:59:42.553Z,7.25
2017-10-23T20:02:10.421Z,7.27
2017-10-23T20:04:38.003Z,7.28
2017-10-23T20:07:05.667Z,7.16
2017-10-23T20:09:33.248Z,7.17
2017-10-23T20:12:00.815Z,7.20
2017-10-23T20:14:28.385Z,7.25
2017-10-23T20:16:55.935Z,7.26
2017-10-23T20:19:23.523Z,7.31
2017-10-23T20:21:51.094Z,7.30
2017-10-23T20:24:18.704Z,7.33
2017-10-23T20:26:46.289Z,7.34
2017-10-23T20:29:13.994Z,7.41
2017-10-23T20:31:41.551Z,7.38
2017-10-23T20:34:09.184Z,7.38
2017-10-23T20:36:37.754Z,7.36
2017-10-23T20:39:05.388Z,7.32
2017-10-23T20:41:32.987Z,7.31
2017-10-23T20:44:00.550Z,7.37
2017-10-23T20:46:28.111Z,7.48
2017-10-23T20:48:55.678Z,7.51
2017-10-23T20:51:23.414Z,7.55
2017-10-23T20:53:50.971Z,7.57
2017-10-23T20:56:18.565Z,7.54
2017-10-23T20:58:46.460Z,7.56
2017-10-23T21:01:14.050Z,7.58
2017-10-23T21:03:41.671Z,7.56
2017-10-23T21:06:09.235Z,7.61
2017-10-23T21:08:36.818Z,7.64
2017-10-23T21:11:04.519Z,7.67
2017-10-23T21:13:32.103Z,7.63
2017-10-23T21:15:59.689Z,7.65
2017-10-23T21:18:27.229Z,7.66
2017-10-23T21:20:54.809Z,7.64
2017-10-23T21:23:22.359Z,7.54
2017-10-23T21:25:49.908Z,7.46
2017-10-23T21:28:17.530Z,7.47
2017-10-23T21:30:45.111Z,7.49
2017-10-23T21:33:12.742Z,7.54
2017-10-23T21:35:40.340Z,7.50
2017-10-23T21:38:07.882Z,7.53
2017-10-23T21:40:35.447Z,7.57
2017-10-23T21:43:03.032Z,7.58
2017-10-23T21:45:30.644Z,7.58
2017-10-23T21:48:13.801Z,7.67
2017-10-23T21:50:41.482Z,7.76
2017-10-23T21:53:09.323Z,7.83
2017-10-23T21:55:36.856Z,7.84
2017-10-23T21:58:04.416Z,7.87
2017-10-23T22:00:31.948Z,7.88
2017-10-23T22:02:59.511Z,7.86
2017-10-23T22:05:27.323Z,7.89
2017-10-23T22:07:54.881Z,7.93
2017-10-23T22:10:22.598Z,7.94
2017-10-23T22:12:50.149Z,7.92
2017-10-23T22:15:17.701Z,7.88
2017-10-23T22:17:45.278Z,7.87
2017-10-23T22:20:12.928Z,7.85
2017-10-23T22:22:40.529Z,7.85
2017-10-23T22:25:08.131Z,7.90
2017-10-23T22:27:35.679Z,7.86
2017-10-23T22:30:05.950Z,7.83
2017-10-23T22:32:33.527Z,7.95
2017-10-23T22:35:01.139Z,7.91
2017-10-23T22:37:28.825Z,7.92
2017-10-23T22:39:56.438Z,7.90
2017-10-23T22:42:23.990Z,7.90
2017-10-23T22:44:51.535Z,7.92
2017-10-23T22:47:19.477Z,7.95
2017-10-23T22:49:47.059Z,7.97
2017-10-23T22:52:14.773Z,7.96
2017-10-23T22:54:42.353Z,7.97
2017-10-23T22:57:10.021Z,8.00
2017-10-23T22:59:37.689Z,8.04
2017-10-23T23:02:05.266Z,8.02
2017-10-23T23:04:32.837Z,8.01
2017-10-23T23:07:00.418Z,7.99
2017-10-23T23:09:28.022Z,7.96
2017-10-23T23:11:55.586Z,7.92
2017-10-23T23:14:23.192Z,7.91
2017-10-23T23:16:50.733Z,7.88
2017-10-23T23:19:18.273Z,7.95
2017-10-23T23:21:45.870Z,7.99
2017-10-23T23:24:13.482Z,7.95
2017-10-23T23:26:41.043Z,7.91
2017-10-23T23:29:08.676Z,7.89
2017-10-23T23:31:36.342Z,7.90
2017-10-23T23:34:03.893Z,7.89
2017-10-23T23:36:31.462Z,7.85
2017-10-23T23:38:59.072Z,7.82
2017-10-23T23:41:26.612Z,7.84
2017-10-23T23:43:54.183Z,7.82
2017-10-23T23:46:21.753Z,7.79
2017-10-23T23:48:49.325Z,7.74
2017-10-23T23:51:16.898Z,7.73
2017-10-23T23:53:44.464Z,7.72
2017-10-23T23:56:12.172Z,7.73
2017-10-23T23:58:39.745Z,7.76
